Time;durP1;ratioP1;P1;durP2;ratioP2;P2;SDS_P1;SDS_P2;PMS_P1;PMS_P2;Temp;Humidity;BMP_temperature;BMP_pressure;BME280_temperature;BME280_humidity;BME280_pressure;Samples;Min_cycle;Max_cycle;Signal;HPM_P1;HPM_P2
2022/04/29 00:00:42;;;;;;;11.57;6.13;;;;;;;;;;4998106;28;92966;-74
2022/04/29 00:03:10;;;;;;;8.10;6.38;;;;;;;;;;5001489;28;92952;-72
2022/04/29 00:05:37;;;;;;;16.92;6.55;;;;;;;;;;4998487;28;93386;-74
2022/04/29 00:08:04;;;;;;;12.15;6.80;;;;;;;;;;4998234;28;93535;-73
2022/04/29 00:10:30;;;;;;;14.65;6.10;;;;;;;;;;4998697;28;91579;-73
2022/04/29 00:12:59;;;;;;;11.13;6.57;;;;;;;;;;4998352;28;92717;-74
2022/04/29 00:15:25;;;;;;;12.68;6.68;;;;;;;;;;4997730;28;93665;-75
2022/04/29 00:17:52;;;;;;;14.02;7.03;;;;;;;;;;4996455;28;94696;-74
2022/04/29 00:20:18;;;;;;;11.88;6.82;;;;;;;;;;4998296;28;96249;-75
2022/04/29 00:22:45;;;;;;;11.95;6.65;;;;;;;;;;4997328;28;93892;-75
2022/04/29 00:25:12;;;;;;;14.38;7.57;;;;;;;;;;5001193;28;92329;-75
2022/04/29 00:27:40;;;;;;;14.82;7.20;;;;;;;;;;4980249;28;93217;-73
2022/04/29 00:30:10;;;;;;;14.65;7.50;;;;;;;;;;4979482;28;92308;-73
2022/04/29 00:32:38;;;;;;;11.67;7.23;;;;;;;;;;4996951;28;93921;-73
2022/04/29 00:35:05;;;;;;;10.93;7.53;;;;;;;;;;4997042;28;94894;-75
2022/04/29 00:37:32;;;;;;;12.45;6.90;;;;;;;;;;4979968;28;92439;-74
2022/04/29 00:39:58;;;;;;;13.65;7.13;;;;;;;;;;4979752;28;94625;-74
2022/04/29 00:42:25;;;;;;;9.90;7.55;;;;;;;;;;4977847;28;98287;-75
2022/04/29 00:44:51;;;;;;;13.75;6.95;;;;;;;;;;4980104;28;92377;-75
2022/04/29 00:47:19;;;;;;;22.02;7.95;;;;;;;;;;4982798;28;96172;-74
2022/04/29 00:49:47;;;;;;;18.17;7.60;;;;;;;;;;4997964;28;92373;-75
2022/04/29 00:52:17;;;;;;;13.52;7.10;;;;;;;;;;4996599;28;92661;-74
2022/04/29 00:54:45;;;;;;;15.00;7.32;;;;;;;;;;4997544;28;93745;-74
2022/04/29 00:57:14;;;;;;;9.90;7.45;;;;;;;;;;4979369;28;93439;-74
2022/04/29 00:59:44;;;;;;;15.52;7.55;;;;;;;;;;4980306;28;94673;-74
2022/04/29 01:02:11;;;;;;;12.07;8.68;;;;;;;;;;4997437;28;93466;-74
2022/04/29 01:04:48;;;;;;;14.70;7.60;;;;;;;;;;4995543;28;93982;-75
2022/04/29 01:07:14;;;;;;;15.32;7.93;;;;;;;;;;4958462;28;94847;-74
2022/04/29 01:09:40;;;;;;;17.80;8.40;;;;;;;;;;4995486;28;96350;-74
2022/04/29 01:12:08;;;;;;;13.32;8.75;;;;;;;;;;4976403;28;95815;-74
2022/04/29 01:14:34;;;;;;;15.38;7.80;;;;;;;;;;4959743;28;96677;-75
2022/04/29 01:17:01;;;;;;;13.55;7.70;;;;;;;;;;4960083;28;92320;-74
2022/04/29 01:19:29;;;;;;;15.52;8.18;;;;;;;;;;4959964;28;94351;-74
2022/04/29 01:21:59;;;;;;;13.20;8.00;;;;;;;;;;4992415;28;95111;-74
2022/04/29 01:24:25;;;;;;;13.20;8.02;;;;;;;;;;4993550;28;91713;-74
2022/04/29 01:26:52;;;;;;;12.25;8.20;;;;;;;;;;4960081;28;93637;-75
2022/04/29 01:29:19;;;;;;;15.15;8.75;;;;;;;;;;4975721;28;96271;-74
2022/04/29 01:31:47;;;;;;;10.55;8.18;;;;;;;;;;4961344;28;94801;-74
2022/04/29 01:34:14;;;;;;;15.60;8.25;;;;;;;;;;4958352;28;96544;-74
2022/04/29 01:36:41;;;;;;;14.18;7.55;;;;;;;;;;4992422;28;92380;-74
2022/04/29 01:39:07;;;;;;;15.88;8.32;;;;;;;;;;4976174;28;94421;-75
2022/04/29 01:41:34;;;;;;;12.85;8.48;;;;;;;;;;4976859;28;93498;-74
2022/04/29 01:44:01;;;;;;;19.23;8.70;;;;;;;;;;4977278;28;92983;-74
2022/04/29 01:46:27;;;;;;;17.08;8.30;;;;;;;;;;4959725;28;95275;-75
2022/04/29 01:49:04;;;;;;;20.10;8.65;;;;;;;;;;4959695;28;95754;-74
2022/04/29 01:51:33;;;;;;;18.80;8.52;;;;;;;;;;4995326;28;92292;-74
2022/04/29 01:54:00;;;;;;;16.48;8.52;;;;;;;;;;4975500;28;95588;-74
2022/04/29 01:56:32;;;;;;;16.05;8.35;;;;;;;;;;4957999;28;94763;-74
2022/04/29 01:59:04;;;;;;;12.77;8.27;;;;;;;;;;4959377;28;97036;-75
2022/04/29 02:01:36;;;;;;;21.17;8.98;;;;;;;;;;4959116;28;95887;-75
2022/04/29 02:04:03;;;;;;;15.45;8.43;;;;;;;;;;4959213;28;92462;-75
2022/04/29 02:06:29;;;;;;;14.30;8.20;;;;;;;;;;4959198;28;94127;-74
2022/04/29 02:08:56;;;;;;;14.13;8.02;;;;;;;;;;4991835;28;95331;-75
2022/04/29 02:11:22;;;;;;;13.73;8.25;;;;;;;;;;4975701;28;92376;-75
2022/04/29 02:14:01;;;;;;;15.13;8.70;;;;;;;;;;4995406;28;93630;-74
2022/04/29 02:16:50;;;;;;;16.80;8.35;;;;;;;;;;4975627;28;92421;-74
2022/04/29 02:19:17;;;;;;;12.15;8.10;;;;;;;;;;4959583;28;94472;-74
2022/04/29 02:21:44;;;;;;;15.73;8.43;;;;;;;;;;4973842;28;97846;-75
2022/04/29 02:24:10;;;;;;;10.77;8.27;;;;;;;;;;4959067;28;92267;-74
2022/04/29 02:26:38;;;;;;;18.55;7.95;;;;;;;;;;4992079;28;95920;-74
2022/04/29 02:29:04;;;;;;;16.80;8.68;;;;;;;;;;4975307;28;95861;-74
2022/04/29 02:31:31;;;;;;;15.68;8.60;;;;;;;;;;4975603;28;92334;-73
2022/04/29 02:33:57;;;;;;;17.52;8.30;;;;;;;;;;4976643;28;93772;-74
2022/04/29 02:36:23;;;;;;;16.65;7.93;;;;;;;;;;4979906;28;92961;-74
2022/04/29 02:38:50;;;;;;;22.80;9.30;;;;;;;;;;4974818;28;95080;-74
2022/04/29 02:41:17;;;;;;;12.60;8.90;;;;;;;;;;4954044;28;95710;-74
2022/04/29 02:43:44;;;;;;;13.50;8.52;;;;;;;;;;4975888;28;92500;-74
2022/04/29 02:46:12;;;;;;;9.10;7.90;;;;;;;;;;4976800;28;94624;-74
2022/04/29 02:48:40;;;;;;;16.48;8.07;;;;;;;;;;4962503;28;95543;-74
2022/04/29 02:51:07;;;;;;;13.88;8.07;;;;;;;;;;4978782;28;92346;-74
2022/04/29 02:53:33;;;;;;;13.82;8.35;;;;;;;;;;4962125;28;94279;-75
2022/04/29 02:56:00;;;;;;;16.42;8.77;;;;;;;;;;4994952;28;96100;-74
2022/04/29 02:58:32;;;;;;;15.00;8.38;;;;;;;;;;4982153;28;92235;-75
2022/04/29 03:00:58;;;;;;;14.18;7.57;;;;;;;;;;4978920;28;93325;-74
2022/04/29 03:03:25;;;;;;;15.98;8.15;;;;;;;;;;4962973;28;91570;-75
2022/04/29 03:05:51;;;;;;;17.42;8.13;;;;;;;;;;4978532;28;94339;-75
2022/04/29 03:08:18;;;;;;;11.50;7.72;;;;;;;;;;4961156;28;94487;-74
2022/04/29 03:10:46;;;;;;;18.77;8.40;;;;;;;;;;4993325;28;94767;-76
2022/04/29 03:13:14;;;;;;;18.75;7.85;;;;;;;;;;4963464;28;97692;-75
2022/04/29 03:15:50;;;;;;;14.15;8.65;;;;;;;;;;4985028;28;93448;-74
2022/04/29 03:18:22;;;;;;;14.52;8.43;;;;;;;;;;4979304;28;92312;-74
2022/04/29 03:20:50;;;;;;;13.90;8.00;;;;;;;;;;4963305;28;95654;-74
2022/04/29 03:23:19;;;;;;;20.77;8.75;;;;;;;;;;4961667;28;92288;-74
2022/04/29 03:25:50;;;;;;;13.40;8.35;;;;;;;;;;4961917;28;95518;-75
2022/04/29 03:28:17;;;;;;;17.65;8.07;;;;;;;;;;4961716;28;95084;-75
2022/04/29 03:30:43;;;;;;;17.08;9.02;;;;;;;;;;4978102;28;92891;-75
2022/04/29 03:33:11;;;;;;;16.17;8.52;;;;;;;;;;4960284;28;94560;-74
2022/04/29 03:35:42;;;;;;;16.55;8.50;;;;;;;;;;4956561;28;98293;-75
2022/04/29 03:38:14;;;;;;;15.13;7.95;;;;;;;;;;4960286;28;92548;-74
2022/04/29 03:40:41;;;;;;;16.77;8.82;;;;;;;;;;4961149;28;95738;-74
2022/04/29 03:43:08;;;;;;;13.98;8.68;;;;;;;;;;4964161;28;96171;-75
2022/04/29 03:45:34;;;;;;;15.70;8.05;;;;;;;;;;4961515;28;93253;-75
2022/04/29 03:48:03;;;;;;;19.08;8.77;;;;;;;;;;4977310;28;96239;-74
2022/04/29 03:50:42;;;;;;;15.68;7.90;;;;;;;;;;4994142;28;92368;-74
2022/04/29 03:53:12;;;;;;;18.30;8.75;;;;;;;;;;4961538;28;95572;-75
2022/04/29 03:55:46;;;;;;;20.33;9.25;;;;;;;;;;4960473;28;96025;-75
2022/04/29 03:58:12;;;;;;;18.88;8.32;;;;;;;;;;4953277;28;92491;-75
2022/04/29 04:00:47;;;;;;;17.80;9.32;;;;;;;;;;4936826;28;95772;-74
2022/04/29 04:03:21;;;;;;;23.42;8.40;;;;;;;;;;4941025;28;93844;-74
2022/04/29 04:08:38;;;;;;;16.05;8.15;;;;;;;;;;4939096;28;94650;-74
2022/04/29 04:11:06;;;;;;;19.02;8.88;;;;;;;;;;4938001;28;92513;-75
2022/04/29 04:13:34;;;;;;;12.93;8.10;;;;;;;;;;4938163;28;96129;-74
2022/04/29 04:16:06;;;;;;;12.20;8.27;;;;;;;;;;4937822;28;95399;-74
2022/04/29 04:18:35;;;;;;;19.40;8.00;;;;;;;;;;4938378;28;92328;-74
2022/04/29 04:21:03;;;;;;;14.88;9.15;;;;;;;;;;4937569;28;95476;-74
2022/04/29 04:23:29;;;;;;;21.52;8.25;;;;;;;;;;4937699;28;96894;-74
2022/04/29 04:25:57;;;;;;;16.92;8.68;;;;;;;;;;4939014;28;94852;-74
2022/04/29 04:28:24;;;;;;;15.60;8.65;;;;;;;;;;4937287;28;96387;-74
2022/04/29 04:30:56;;;;;;;12.45;8.40;;;;;;;;;;4937637;28;92428;-74
2022/04/29 04:33:33;;;;;;;13.10;8.80;;;;;;;;;;4937380;28;96142;-74
2022/04/29 04:36:00;;;;;;;19.92;8.60;;;;;;;;;;4937656;28;96018;-74
2022/04/29 04:38:26;;;;;;;14.75;8.55;;;;;;;;;;4938991;28;92302;-74
2022/04/29 04:41:04;;;;;;;15.40;8.45;;;;;;;;;;4940150;28;94784;-74
2022/04/29 04:43:31;;;;;;;20.60;8.70;;;;;;;;;;4942441;28;94963;-75
2022/04/29 04:46:01;;;;;;;20.13;8.63;;;;;;;;;;4941799;28;92437;-75
2022/04/29 04:48:41;;;;;;;29.45;8.82;;;;;;;;;;4944160;28;92622;-74
2022/04/29 04:51:26;;;;;;;21.33;8.27;;;;;;;;;;4937983;28;94681;-74
2022/04/29 04:54:00;;;;;;;14.90;8.30;;;;;;;;;;4941219;28;98895;-74
2022/04/29 04:56:28;;;;;;;19.63;8.27;;;;;;;;;;4939748;28;95856;-74
2022/04/29 04:58:56;;;;;;;16.60;7.68;;;;;;;;;;4968693;28;93443;-74
2022/04/29 05:01:22;;;;;;;15.80;8.25;;;;;;;;;;4957051;28;95718;-74
2022/04/29 05:04:08;;;;;;;14.93;8.15;;;;;;;;;;4957268;28;92563;-74
2022/04/29 05:06:36;;;;;;;23.27;8.07;;;;;;;;;;4957596;28;92153;-74
2022/04/29 05:09:04;;;;;;;19.63;8.80;;;;;;;;;;4957142;28;95119;-74
2022/04/29 05:11:34;;;;;;;14.35;8.63;;;;;;;;;;4959781;28;96367;-74
2022/04/29 05:14:38;;;;;;;15.00;8.20;;;;;;;;;;4957307;28;92306;-74
2022/04/29 05:17:05;;;;;;;16.38;8.38;;;;;;;;;;4955922;28;95772;-74
2022/04/29 05:19:40;;;;;;;16.27;8.65;;;;;;;;;;4955269;28;92591;-75
2022/04/29 05:22:08;;;;;;;19.85;8.73;;;;;;;;;;4957041;28;95226;-75
2022/04/29 05:24:34;;;;;;;13.23;7.18;;;;;;;;;;4957219;28;95483;-74
2022/04/29 05:27:19;;;;;;;15.15;7.78;;;;;;;;;;4957815;28;92187;-74
2022/04/29 05:30:04;;;;;;;16.23;8.40;;;;;;;;;;4955493;28;92418;-74
2022/04/29 05:32:53;;;;;;;18.80;9.52;;;;;;;;;;4943390;28;92495;-74
2022/04/29 05:35:39;;;;;;;37.92;8.77;;;;;;;;;;4960979;28;91497;-74
2022/04/29 05:44:07;;;;;;;20.05;8.32;;;;;;;;;;4954916;28;95141;-74
2022/04/29 05:46:35;;;;;;;21.63;8.88;;;;;;;;;;4957429;28;93061;-74
2022/04/29 05:49:03;;;;;;;16.73;8.10;;;;;;;;;;4940582;28;92415;-74
2022/04/29 05:51:34;;;;;;;21.17;8.07;;;;;;;;;;4956433;28;93551;-73
2022/04/29 05:54:00;;;;;;;23.50;9.32;;;;;;;;;;4955810;28;95195;-75
2022/04/29 05:56:28;;;;;;;20.05;8.45;;;;;;;;;;4969728;28;92478;-75
2022/04/29 05:58:54;;;;;;;17.45;7.57;;;;;;;;;;4978051;28;95881;-73
2022/04/29 06:01:39;;;;;;;18.05;7.50;;;;;;;;;;4988653;28;91502;-74
2022/04/29 06:04:06;;;;;;;19.42;7.75;;;;;;;;;;4975861;28;94987;-74
2022/04/29 06:06:35;;;;;;;15.15;7.93;;;;;;;;;;4975286;28;94968;-74
2022/04/29 06:09:02;;;;;;;24.40;8.73;;;;;;;;;;4974030;28;94846;-74
2022/04/29 06:11:30;;;;;;;24.73;8.68;;;;;;;;;;4975123;28;97811;-74
2022/04/29 06:13:58;;;;;;;16.63;7.95;;;;;;;;;;4992035;28;95454;-74
2022/04/29 06:16:59;;;;;;;19.33;8.20;;;;;;;;;;4976627;28;92407;-74
2022/04/29 06:19:44;;;;;;;18.70;8.15;;;;;;;;;;4978861;28;92414;-71
2022/04/29 06:22:48;;;;;;;14.60;7.93;;;;;;;;;;4979814;28;92309;-70
2022/04/29 06:25:24;;;;;;;17.85;7.97;;;;;;;;;;4995339;28;94531;-70
2022/04/29 06:27:52;;;;;;;17.35;8.30;;;;;;;;;;4979218;28;95588;-70
2022/04/29 06:30:19;;;;;;;16.88;8.40;;;;;;;;;;4980438;28;93630;-75
2022/04/29 06:33:34;;;;;;;21.13;8.38;;;;;;;;;;4986783;28;93858;-76
2022/04/29 06:36:02;;;;;;;16.70;7.68;;;;;;;;;;4986610;28;98201;-74
2022/04/29 06:38:29;;;;;;;11.05;8.10;;;;;;;;;;4987644;28;93504;-73
2022/04/29 06:40:56;;;;;;;17.95;7.97;;;;;;;;;;4985466;28;93205;-76
2022/04/29 06:43:32;;;;;;;14.23;7.75;;;;;;;;;;4989508;28;95847;-76
2022/04/29 06:46:18;;;;;;;14.43;7.60;;;;;;;;;;4987261;28;94161;-76
2022/04/29 06:49:03;;;;;;;14.90;7.60;;;;;;;;;;4985583;28;92431;-75
2022/04/29 06:51:48;;;;;;;9.98;7.32;;;;;;;;;;4980778;28;92338;-78
2022/04/29 06:54:19;;;;;;;14.27;7.60;;;;;;;;;;4984011;28;95268;-76
2022/04/29 06:56:52;;;;;;;12.00;6.85;;;;;;;;;;4982893;28;96135;-77
2022/04/29 06:59:20;;;;;;;13.07;7.32;;;;;;;;;;4989368;28;92380;-76
2022/04/29 07:01:47;;;;;;;19.08;7.38;;;;;;;;;;4974455;28;94947;-76
2022/04/29 07:04:13;;;;;;;17.92;8.02;;;;;;;;;;4981569;28;93199;-73
2022/04/29 07:06:40;;;;;;;10.13;7.07;;;;;;;;;;4979614;28;93145;-74
2022/04/29 07:09:06;;;;;;;13.73;7.95;;;;;;;;;;4976283;28;96112;-73
2022/04/29 07:11:51;;;;;;;20.27;7.68;;;;;;;;;;4976310;28;93205;-75
2022/04/29 07:14:25;;;;;;;19.45;7.78;;;;;;;;;;4964070;28;95034;-76
2022/04/29 07:17:01;;;;;;;17.42;6.65;;;;;;;;;;4976379;28;95561;-75
2022/04/29 07:19:37;;;;;;;13.27;6.88;;;;;;;;;;4960521;28;92052;-74
2022/04/29 07:22:23;;;;;;;12.57;6.72;;;;;;;;;;4976873;28;95118;-75
2022/04/29 07:24:51;;;;;;;12.38;6.97;;;;;;;;;;4981005;28;96148;-76
2022/04/29 07:27:19;;;;;;;13.85;6.57;;;;;;;;;;4975209;28;94770;-76
2022/04/29 07:29:45;;;;;;;17.02;6.90;;;;;;;;;;4978803;28;97969;-76
2022/04/29 07:32:18;;;;;;;9.07;6.88;;;;;;;;;;4974845;28;92860;-76
2022/04/29 07:43:57;;;;;;;13.07;6.45;;;;;;;;;;5009117;28;96242;-74
2022/04/29 07:46:24;;;;;;;11.10;7.03;;;;;;;;;;4986810;28;92163;-75
2022/04/29 07:49:10;;;;;;;9.93;6.72;;;;;;;;;;4981516;28;92411;-77
2022/04/29 07:51:37;;;;;;;13.48;6.78;;;;;;;;;;5004750;28;95343;-76
2022/04/29 07:54:05;;;;;;;10.63;6.63;;;;;;;;;;4985352;28;98516;-75
2022/04/29 07:56:31;;;;;;;10.93;7.38;;;;;;;;;;5002343;28;97737;-76
2022/04/29 07:59:00;;;;;;;12.80;6.93;;;;;;;;;;4987263;28;95316;-75
2022/04/29 08:01:27;;;;;;;15.35;6.70;;;;;;;;;;4980146;28;93022;-76
2022/04/29 08:03:54;;;;;;;9.70;6.88;;;;;;;;;;4983913;28;94466;-77
2022/04/29 08:06:21;;;;;;;14.07;7.20;;;;;;;;;;4987197;28;93138;-76
2022/04/29 08:08:48;;;;;;;16.75;7.70;;;;;;;;;;4977365;28;92337;-77
2022/04/29 08:11:15;;;;;;;17.38;7.10;;;;;;;;;;4988820;28;95106;-76
2022/04/29 08:14:06;;;;;;;16.55;6.80;;;;;;;;;;4966363;28;92893;-79
2022/04/29 08:17:12;;;;;;;13.43;6.75;;;;;;;;;;4997678;28;92781;-79
2022/04/29 08:19:48;;;;;;;6.68;5.88;;;;;;;;;;4982531;28;96486;-78
2022/04/29 08:22:21;;;;;;;13.32;6.90;;;;;;;;;;4976658;28;92458;-76
2022/04/29 08:24:48;;;;;;;13.70;6.53;;;;;;;;;;4989136;28;93249;-74
2022/04/29 08:27:15;;;;;;;15.73;7.03;;;;;;;;;;5004609;28;95803;-74
2022/04/29 08:29:50;;;;;;;12.82;6.28;;;;;;;;;;4980955;28;92455;-75
2022/04/29 08:32:17;;;;;;;9.60;6.85;;;;;;;;;;4997111;28;95273;-75
2022/04/29 08:34:45;;;;;;;15.00;6.32;;;;;;;;;;5004204;28;96501;-74
2022/04/29 08:37:11;;;;;;;16.02;6.20;;;;;;;;;;4990179;28;91468;-75
2022/04/29 08:39:44;;;;;;;11.60;6.28;;;;;;;;;;5003298;28;95017;-74
2022/04/29 08:42:14;;;;;;;10.30;7.13;;;;;;;;;;4984914;28;92393;-70
2022/04/29 08:44:42;;;;;;;14.98;6.88;;;;;;;;;;5016771;28;95395;-75
2022/04/29 08:47:40;;;;;;;14.50;6.63;;;;;;;;;;4983568;28;93741;-74
2022/04/29 08:50:14;;;;;;;10.02;6.07;;;;;;;;;;4985507;28;92477;-75
2022/04/29 08:52:40;;;;;;;11.63;6.57;;;;;;;;;;4987040;28;92333;-76
2022/04/29 09:00:39;;;;;;;11.57;6.25;;;;;;;;;;4985990;28;92759;-73
2022/04/29 09:03:10;;;;;;;13.60;6.43;;;;;;;;;;4988237;28;91790;-74
2022/04/29 09:05:37;;;;;;;14.68;6.68;;;;;;;;;;4985497;28;92736;-74
2022/04/29 09:08:04;;;;;;;15.88;6.65;;;;;;;;;;4984006;28;94459;-74
2022/04/29 09:10:34;;;;;;;13.77;6.93;;;;;;;;;;4983689;28;95219;-74
2022/04/29 09:13:10;;;;;;;13.93;7.78;;;;;;;;;;4976943;28;95709;-73
2022/04/29 09:15:36;;;;;;;19.83;7.90;;;;;;;;;;4981591;28;94181;-76
2022/04/29 09:18:03;;;;;;;12.68;6.95;;;;;;;;;;4980749;28;92297;-71
2022/04/29 09:20:30;;;;;;;18.70;7.63;;;;;;;;;;4987985;28;92704;-72
2022/04/29 09:22:56;;;;;;;16.52;6.95;;;;;;;;;;4984332;28;94804;-72
2022/04/29 09:25:42;;;;;;;20.02;7.65;;;;;;;;;;4981547;28;92711;-73
2022/04/29 09:28:35;;;;;;;13.48;6.82;;;;;;;;;;5000674;28;95313;-72
2022/04/29 09:31:15;;;;;;;12.80;7.38;;;;;;;;;;4981952;28;92392;-75
2022/04/29 09:33:55;;;;;;;14.88;7.20;;;;;;;;;;4978833;28;93265;-74
2022/04/29 09:36:36;;;;;;;15.57;7.03;;;;;;;;;;4985304;28;96619;-76
2022/04/29 09:42:04;;;;;;;22.00;7.65;;;;;;;;;;4982140;28;93494;-75
2022/04/29 09:44:31;;;;;;;18.42;7.63;;;;;;;;;;4985634;28;94933;-73
2022/04/29 09:47:11;;;;;;;15.45;7.80;;;;;;;;;;4992199;28;92345;-74
2022/04/29 09:49:38;;;;;;;12.95;7.43;;;;;;;;;;4988044;28;93651;-75
2022/04/29 09:52:05;;;;;;;15.05;7.53;;;;;;;;;;4985889;28;92312;-75
2022/04/29 09:54:37;;;;;;;11.82;7.20;;;;;;;;;;4999695;28;96010;-75
2022/04/29 09:57:12;;;;;;;15.48;7.53;;;;;;;;;;4987758;28;93126;-74
2022/04/29 09:59:38;;;;;;;23.27;7.18;;;;;;;;;;4991002;28;92256;-74
2022/04/29 10:02:06;;;;;;;13.50;7.45;;;;;;;;;;4980939;28;94819;-74
2022/04/29 10:04:35;;;;;;;14.55;7.22;;;;;;;;;;4989704;28;93558;-74
2022/04/29 10:07:06;;;;;;;11.10;7.13;;;;;;;;;;4989678;28;92375;-76
2022/04/29 10:09:33;;;;;;;20.83;8.23;;;;;;;;;;4988337;28;93291;-75
2022/04/29 10:12:04;;;;;;;15.15;7.63;;;;;;;;;;4990281;28;92378;-74
2022/04/29 10:14:47;;;;;;;20.33;8.13;;;;;;;;;;4986021;28;96064;-75
2022/04/29 10:23:15;;;;;;;21.85;8.10;;;;;;;;;;4989450;28;93637;-74
2022/04/29 10:25:42;;;;;;;15.93;7.78;;;;;;;;;;4989515;28;93109;-74
2022/04/29 10:28:09;;;;;;;17.35;7.70;;;;;;;;;;4987578;28;94799;-75
2022/04/29 10:30:40;;;;;;;13.18;7.28;;;;;;;;;;4982115;28;95681;-75
2022/04/29 10:33:10;;;;;;;18.08;7.00;;;;;;;;;;4990041;28;92627;-73
2022/04/29 10:35:40;;;;;;;11.15;6.78;;;;;;;;;;4988524;28;93376;-73
2022/04/29 10:38:13;;;;;;;15.60;7.32;;;;;;;;;;4990828;28;93339;-76
2022/04/29 10:40:39;;;;;;;17.25;7.05;;;;;;;;;;4989640;28;92533;-74
2022/04/29 10:43:09;;;;;;;9.00;6.20;;;;;;;;;;4985006;28;92902;-75
2022/04/29 10:45:55;;;;;;;11.52;6.57;;;;;;;;;;4990741;28;91455;-75
2022/04/29 10:48:38;;;;;;;13.65;6.95;;;;;;;;;;4988244;28;92504;-73
2022/04/29 10:51:29;;;;;;;12.38;6.38;;;;;;;;;;4985628;28;93297;-72
2022/04/29 10:54:12;;;;;;;20.75;6.35;;;;;;;;;;4982531;28;96014;-73
2022/04/29 10:56:59;;;;;;;16.65;6.10;;;;;;;;;;4986263;28;97926;-74
2022/04/29 10:59:26;;;;;;;13.32;6.55;;;;;;;;;;5007613;28;93510;-74
2022/04/29 11:02:07;;;;;;;15.48;5.85;;;;;;;;;;4990609;28;93023;-73
2022/04/29 11:04:34;;;;;;;16.45;5.43;;;;;;;;;;5003106;28;94703;-74
2022/04/29 11:07:01;;;;;;;14.30;6.40;;;;;;;;;;5009924;28;92973;-74
2022/04/29 11:09:34;;;;;;;9.95;6.03;;;;;;;;;;4984617;28;92479;-75
2022/04/29 11:12:01;;;;;;;20.48;6.30;;;;;;;;;;5008150;28;92579;-73
2022/04/29 11:15:06;;;;;;;9.20;6.20;;;;;;;;;;5004197;28;92570;-74
2022/04/29 11:17:52;;;;;;;10.55;5.47;;;;;;;;;;5010440;28;92357;-75
2022/04/29 11:20:22;;;;;;;9.73;6.13;;;;;;;;;;5007464;28;96130;-73
2022/04/29 11:25:46;;;;;;;12.75;5.93;;;;;;;;;;5007143;28;93458;-73
2022/04/29 11:28:21;;;;;;;10.57;6.03;;;;;;;;;;5002879;28;95517;-73
2022/04/29 11:31:20;;;;;;;11.13;5.80;;;;;;;;;;4968509;28;92450;-73
2022/04/29 11:33:47;;;;;;;19.63;5.55;;;;;;;;;;5005876;28;92950;-74
2022/04/29 11:36:14;;;;;;;8.35;5.50;;;;;;;;;;5002592;28;93626;-75
2022/04/29 11:38:43;;;;;;;7.32;5.05;;;;;;;;;;5008979;28;91680;-74
2022/04/29 11:41:21;;;;;;;9.30;5.95;;;;;;;;;;4991923;28;92870;-74
2022/04/29 11:43:48;;;;;;;9.82;6.05;;;;;;;;;;5004425;28;92186;-73
2022/04/29 11:46:15;;;;;;;8.27;6.13;;;;;;;;;;5008110;28;94827;-73
2022/04/29 11:48:49;;;;;;;11.13;6.15;;;;;;;;;;5005856;28;94791;-74
2022/04/29 11:51:15;;;;;;;8.75;6.35;;;;;;;;;;5009260;28;92437;-74
2022/04/29 11:54:01;;;;;;;12.93;6.10;;;;;;;;;;5005168;28;92854;-73
2022/04/29 11:56:32;;;;;;;15.95;6.60;;;;;;;;;;5005015;28;92295;-74
2022/04/29 11:58:58;;;;;;;32.63;7.27;;;;;;;;;;5008728;28;93232;-74
2022/04/29 12:01:28;;;;;;;9.20;6.70;;;;;;;;;;5005870;28;93903;-73
2022/04/29 12:03:55;;;;;;;11.48;6.38;;;;;;;;;;5003184;28;92398;-74
2022/04/29 12:06:22;;;;;;;25.88;6.53;;;;;;;;;;5006065;28;92296;-73
2022/04/29 12:08:49;;;;;;;29.67;6.80;;;;;;;;;;4990134;28;93426;-74
2022/04/29 12:11:30;;;;;;;21.15;7.32;;;;;;;;;;5005125;28;94823;-74
2022/04/29 12:14:16;;;;;;;25.50;7.78;;;;;;;;;;5002597;28;95628;-73
2022/04/29 12:16:45;;;;;;;15.00;7.85;;;;;;;;;;5005378;28;92964;-73
2022/04/29 12:19:16;;;;;;;43.10;8.50;;;;;;;;;;4982636;28;92420;-73
2022/04/29 12:21:54;;;;;;;22.90;8.07;;;;;;;;;;5009376;28;93683;-73
2022/04/29 12:24:20;;;;;;;11.13;7.45;;;;;;;;;;5004719;28;93168;-75
2022/04/29 12:27:04;;;;;;;12.45;8.30;;;;;;;;;;5010504;28;92362;-71
2022/04/29 12:29:32;;;;;;;10.35;7.70;;;;;;;;;;4987955;28;94237;-75
2022/04/29 12:35:07;;;;;;;14.05;8.00;;;;;;;;;;5005634;28;93030;-76
2022/04/29 12:37:34;;;;;;;10.95;7.93;;;;;;;;;;5003901;28;96209;-73
2022/04/29 12:40:09;;;;;;;14.30;7.97;;;;;;;;;;5005578;28;92177;-75
2022/04/29 12:42:37;;;;;;;10.02;7.40;;;;;;;;;;5017557;28;94595;-75
2022/04/29 12:47:46;;;;;;;8.93;7.95;;;;;;;;;;5005810;28;93388;-73
2022/04/29 12:50:31;;;;;;;27.48;8.15;;;;;;;;;;5008593;28;94681;-72
2022/04/29 12:53:14;;;;;;;33.63;8.18;;;;;;;;;;5007099;28;92315;-75
2022/04/29 12:55:44;;;;;;;11.90;8.38;;;;;;;;;;5002165;28;92784;-74
2022/04/29 12:58:17;;;;;;;14.95;7.97;;;;;;;;;;5000844;28;93564;-74
2022/04/29 13:00:45;;;;;;;12.68;8.65;;;;;;;;;;4984623;28;92205;-75
2022/04/29 13:03:21;;;;;;;11.43;8.35;;;;;;;;;;4999516;28;94741;-75
2022/04/29 13:05:57;;;;;;;32.35;8.45;;;;;;;;;;4986095;28;95760;-74
2022/04/29 13:08:23;;;;;;;20.38;8.30;;;;;;;;;;4989666;28;92411;-74
2022/04/29 13:10:51;;;;;;;11.25;7.80;;;;;;;;;;5007563;28;93488;-74
2022/04/29 13:13:19;;;;;;;14.98;9.02;;;;;;;;;;5005360;28;92637;-74
2022/04/29 13:15:47;;;;;;;16.33;8.27;;;;;;;;;;4987326;28;94978;-74
2022/04/29 13:18:16;;;;;;;14.13;8.30;;;;;;;;;;4987379;28;95360;-74
2022/04/29 13:20:43;;;;;;;12.57;8.27;;;;;;;;;;5008988;28;91571;-73
2022/04/29 13:23:15;;;;;;;14.07;8.23;;;;;;;;;;4987107;28;95235;-75
2022/04/29 13:25:45;;;;;;;21.83;8.02;;;;;;;;;;4989967;28;96269;-73
2022/04/29 13:28:12;;;;;;;9.82;8.38;;;;;;;;;;5003977;28;94661;-75
2022/04/29 13:30:39;;;;;;;11.43;8.00;;;;;;;;;;4998555;28;96037;-74
2022/04/29 13:33:05;;;;;;;9.48;8.50;;;;;;;;;;5012737;28;92383;-74
2022/04/29 13:35:32;;;;;;;16.77;8.75;;;;;;;;;;5006233;28;93561;-74
2022/04/29 13:37:58;;;;;;;12.93;8.13;;;;;;;;;;5007214;28;93119;-74
2022/04/29 13:40:24;;;;;;;12.15;8.13;;;;;;;;;;5004714;28;92461;-74
2022/04/29 13:42:54;;;;;;;18.40;8.30;;;;;;;;;;5006177;28;93485;-74
2022/04/29 13:45:20;;;;;;;20.13;8.45;;;;;;;;;;5007980;28;91772;-73
2022/04/29 13:47:47;;;;;;;12.05;7.40;;;;;;;;;;5005506;28;92281;-74
2022/04/29 13:50:14;;;;;;;15.10;8.10;;;;;;;;;;4959583;28;92951;-74
2022/04/29 13:55:26;;;;;;;10.27;7.85;;;;;;;;;;4968980;28;92596;-73
2022/04/29 13:57:53;;;;;;;13.23;7.97;;;;;;;;;;4984985;28;93989;-75
2022/04/29 14:00:19;;;;;;;8.43;7.57;;;;;;;;;;4983583;28;92459;-74
2022/04/29 14:02:47;;;;;;;9.75;7.40;;;;;;;;;;4984289;28;92522;-75
2022/04/29 14:05:14;;;;;;;15.98;7.60;;;;;;;;;;4979671;28;93110;-72
2022/04/29 14:07:42;;;;;;;14.05;7.53;;;;;;;;;;4989937;28;92391;-74
2022/04/29 14:10:09;;;;;;;9.23;7.25;;;;;;;;;;5005227;28;92740;-75
2022/04/29 14:12:36;;;;;;;8.02;6.40;;;;;;;;;;5003576;28;94654;-74
2022/04/29 14:15:03;;;;;;;10.50;7.18;;;;;;;;;;5000577;28;92199;-74
2022/04/29 14:17:29;;;;;;;7.95;7.13;;;;;;;;;;4982347;28;94715;-74
2022/04/29 14:19:56;;;;;;;11.82;7.32;;;;;;;;;;4987127;28;92390;-73
2022/04/29 14:22:22;;;;;;;13.40;7.68;;;;;;;;;;5004147;28;92811;-73
2022/04/29 14:24:49;;;;;;;25.35;7.85;;;;;;;;;;5003908;28;93625;-73
2022/04/29 14:27:15;;;;;;;19.60;7.88;;;;;;;;;;5004859;28;92591;-72
2022/04/29 14:29:42;;;;;;;9.48;6.82;;;;;;;;;;5002947;28;93407;-72
2022/04/29 14:32:13;;;;;;;12.88;7.10;;;;;;;;;;5007633;28;93637;-74
2022/04/29 14:34:41;;;;;;;7.32;6.80;;;;;;;;;;5004049;28;91560;-75
2022/04/29 14:37:08;;;;;;;8.20;6.97;;;;;;;;;;4986410;28;94936;-72
2022/04/29 14:39:34;;;;;;;9.88;7.35;;;;;;;;;;5005703;28;93478;-73
2022/04/29 14:42:01;;;;;;;29.55;7.30;;;;;;;;;;5005222;28;95081;-73
2022/04/29 14:44:27;;;;;;;8.60;7.05;;;;;;;;;;5003489;28;92942;-74
2022/04/29 14:46:53;;;;;;;8.63;6.95;;;;;;;;;;5008487;28;92408;-74
2022/04/29 14:49:20;;;;;;;7.82;6.72;;;;;;;;;;5010478;28;93346;-75
2022/04/29 14:51:47;;;;;;;14.30;6.97;;;;;;;;;;5006877;28;95475;-75
2022/04/29 14:54:13;;;;;;;7.45;6.75;;;;;;;;;;4988811;28;92472;-73
2022/04/29 14:56:43;;;;;;;8.85;6.68;;;;;;;;;;5010006;28;93621;-74
2022/04/29 14:59:13;;;;;;;7.88;7.10;;;;;;;;;;5010639;28;92840;-74
2022/04/29 15:01:40;;;;;;;17.20;7.05;;;;;;;;;;4989991;28;93151;-74
2022/04/29 15:04:07;;;;;;;9.23;7.50;;;;;;;;;;5009248;28;94765;-74
2022/04/29 15:06:35;;;;;;;12.70;6.70;;;;;;;;;;5007123;28;94773;-74
2022/04/29 15:17:21;;;;;;;10.15;6.78;;;;;;;;;;5007070;28;92821;-74
2022/04/29 15:19:48;;;;;;;9.38;6.80;;;;;;;;;;5007658;28;95074;-77
2022/04/29 15:22:14;;;;;;;6.95;6.30;;;;;;;;;;5010823;28;92311;-75
2022/04/29 15:24:41;;;;;;;9.68;6.20;;;;;;;;;;5006939;28;93716;-74
2022/04/29 15:27:08;;;;;;;10.95;6.75;;;;;;;;;;5009088;28;92482;-76
2022/04/29 15:29:34;;;;;;;10.80;6.43;;;;;;;;;;4985321;28;92942;-77
2022/04/29 15:32:00;;;;;;;9.93;6.65;;;;;;;;;;5003101;28;95863;-73
2022/04/29 15:34:30;;;;;;;10.55;6.78;;;;;;;;;;5008841;28;92271;-74
2022/04/29 15:36:58;;;;;;;8.20;6.60;;;;;;;;;;4984985;28;92931;-74
2022/04/29 15:39:24;;;;;;;7.70;6.20;;;;;;;;;;4989048;28;95004;-73
2022/04/29 15:41:50;;;;;;;15.23;6.68;;;;;;;;;;5008977;28;92307;-74
2022/04/29 15:44:17;;;;;;;13.85;6.35;;;;;;;;;;5010972;28;94142;-75